Time;durP1;ratioP1;P1;durP2;ratioP2;P2;SDS_P1;SDS_P2;PMS_P1;PMS_P2;Temp;Humidity;BMP_temperature;BMP_pressure;BME280_temperature;BME280_humidity;BME280_pressure;Samples;Min_cycle;Max_cycle;Signal;HPM_P1;HPM_P2
2023/12/02 00:02:11;;;;;;;19.42;9.52;;;;;;;;;;5066392;28;20430;-68
2023/12/02 00:04:37;;;;;;;17.08;8.43;;;;;;;;;;5064251;28;20614;-69
2023/12/02 00:07:02;;;;;;;23.15;10.18;;;;;;;;;;5062259;28;20442;-68
2023/12/02 00:09:27;;;;;;;21.30;8.90;;;;;;;;;;5044898;28;20048;-70
2023/12/02 00:11:53;;;;;;;20.63;9.98;;;;;;;;;;5065605;28;20059;-67
2023/12/02 00:14:18;;;;;;;20.40;10.30;;;;;;;;;;5053690;28;20121;-67
2023/12/02 00:16:43;;;;;;;21.55;8.65;;;;;;;;;;5061730;28;20047;-68
2023/12/02 00:19:08;;;;;;;19.65;9.35;;;;;;;;;;5060485;28;20055;-67
2023/12/02 00:21:33;;;;;;;22.58;9.73;;;;;;;;;;5070452;22;20012;-63
2023/12/02 00:23:59;;;;;;;20.85;10.18;;;;;;;;;;5071781;28;20534;-62
2023/12/02 00:26:24;;;;;;;20.77;9.25;;;;;;;;;;5069420;28;20078;-61
2023/12/02 00:28:49;;;;;;;19.02;8.60;;;;;;;;;;5072287;28;20432;-62
2023/12/02 00:31:14;;;;;;;16.50;9.00;;;;;;;;;;5071956;28;20028;-64
2023/12/02 00:33:40;;;;;;;17.17;7.85;;;;;;;;;;5085693;28;20024;-64
2023/12/02 00:36:05;;;;;;;20.25;9.02;;;;;;;;;;5077852;28;20053;-63
2023/12/02 00:38:30;;;;;;;15.18;8.05;;;;;;;;;;5082487;28;20099;-61
2023/12/02 00:40:56;;;;;;;20.38;8.45;;;;;;;;;;5075582;28;20032;-62
2023/12/02 00:43:21;;;;;;;19.05;8.55;;;;;;;;;;5056351;28;20020;-64
2023/12/02 00:45:47;;;;;;;17.30;7.95;;;;;;;;;;5084044;28;20133;-64
2023/12/02 00:48:12;;;;;;;19.20;8.88;;;;;;;;;;5085283;28;20398;-64
2023/12/02 00:50:37;;;;;;;17.25;8.43;;;;;;;;;;5081678;28;20027;-64
2023/12/02 00:53:02;;;;;;;20.80;8.30;;;;;;;;;;5090316;28;20103;-64
2023/12/02 00:55:28;;;;;;;17.60;8.02;;;;;;;;;;5087554;28;20494;-64
2023/12/02 00:57:53;;;;;;;18.48;8.13;;;;;;;;;;5087415;28;20031;-64
2023/12/02 01:00:18;;;;;;;20.92;9.32;;;;;;;;;;5082681;28;20016;-64
2023/12/02 01:02:43;;;;;;;20.55;8.45;;;;;;;;;;5080299;28;20021;-65
2023/12/02 01:05:09;;;;;;;23.25;9.10;;;;;;;;;;5080655;28;20103;-66
2023/12/02 01:07:34;;;;;;;24.10;9.27;;;;;;;;;;5084771;28;20099;-63
2023/12/02 01:09:59;;;;;;;24.50;10.23;;;;;;;;;;5082939;28;20015;-63
2023/12/02 01:12:24;;;;;;;21.98;10.70;;;;;;;;;;5088450;28;20382;-61
2023/12/02 01:14:50;;;;;;;24.50;10.20;;;;;;;;;;5079633;28;20035;-63
2023/12/02 01:17:16;;;;;;;21.15;9.90;;;;;;;;;;5077901;28;20055;-64
2023/12/02 01:19:41;;;;;;;23.83;11.30;;;;;;;;;;5082945;28;20108;-64
2023/12/02 01:22:07;;;;;;;28.40;10.50;;;;;;;;;;5078467;28;20112;-63
2023/12/02 01:24:32;;;;;;;20.23;9.68;;;;;;;;;;5081913;28;20103;-64
2023/12/02 01:26:57;;;;;;;20.30;10.05;;;;;;;;;;5084605;28;20046;-63
2023/12/02 01:29:22;;;;;;;22.73;9.43;;;;;;;;;;5085391;28;20024;-63
2023/12/02 01:31:47;;;;;;;22.67;9.80;;;;;;;;;;5079025;28;20025;-64
2023/12/02 01:34:13;;;;;;;25.48;11.10;;;;;;;;;;5080073;28;20027;-62
2023/12/02 01:36:38;;;;;;;20.00;9.30;;;;;;;;;;5079171;28;20013;-61
2023/12/02 01:39:03;;;;;;;22.23;10.35;;;;;;;;;;5087750;28;20027;-61
2023/12/02 01:41:31;;;;;;;27.63;11.68;;;;;;;;;;5082012;28;20489;-63
2023/12/02 01:43:56;;;;;;;30.97;9.90;;;;;;;;;;5082338;28;20036;-63
2023/12/02 01:46:22;;;;;;;23.73;11.10;;;;;;;;;;5081955;28;20024;-63
2023/12/02 01:48:47;;;;;;;24.33;11.80;;;;;;;;;;5080944;28;20048;-64
2023/12/02 01:51:13;;;;;;;23.88;9.77;;;;;;;;;;5081954;28;20386;-63
2023/12/02 01:53:41;;;;;;;25.30;11.50;;;;;;;;;;5083129;28;20157;-63
2023/12/02 01:56:06;;;;;;;23.15;10.90;;;;;;;;;;5077550;28;20013;-62
2023/12/02 01:58:32;;;;;;;21.80;9.80;;;;;;;;;;5079879;28;20066;-62
2023/12/02 02:00:57;;;;;;;23.00;10.90;;;;;;;;;;5080451;28;20012;-65
2023/12/02 02:03:22;;;;;;;25.27;10.57;;;;;;;;;;5079435;28;20530;-64
2023/12/02 02:05:48;;;;;;;28.42;11.90;;;;;;;;;;5084146;28;20672;-62
2023/12/02 02:08:13;;;;;;;31.48;12.35;;;;;;;;;;5088958;28;20111;-64
2023/12/02 02:10:38;;;;;;;23.77;11.93;;;;;;;;;;5072612;28;20066;-63
2023/12/02 02:13:04;;;;;;;26.92;12.13;;;;;;;;;;5085038;28;20025;-61
2023/12/02 02:15:29;;;;;;;25.42;11.52;;;;;;;;;;5080930;28;20020;-61
2023/12/02 02:17:54;;;;;;;21.63;10.05;;;;;;;;;;5082371;28;20024;-63
2023/12/02 02:20:19;;;;;;;24.80;11.30;;;;;;;;;;5088660;28;20032;-64
2023/12/02 02:22:45;;;;;;;21.60;9.32;;;;;;;;;;5080761;28;20024;-63
2023/12/02 02:25:10;;;;;;;39.55;11.75;;;;;;;;;;5081277;28;20020;-65
2023/12/02 02:27:35;;;;;;;30.40;10.95;;;;;;;;;;5079299;28;20020;-64
2023/12/02 02:30:00;;;;;;;28.27;12.27;;;;;;;;;;5087525;28;20024;-64
2023/12/02 02:32:25;;;;;;;22.98;9.18;;;;;;;;;;5079561;28;20026;-64
2023/12/02 02:34:51;;;;;;;20.10;10.32;;;;;;;;;;5081292;28;20024;-63
2023/12/02 02:37:16;;;;;;;21.75;10.50;;;;;;;;;;5081175;28;20039;-64
2023/12/02 02:39:41;;;;;;;21.90;9.88;;;;;;;;;;5089050;28;20022;-64
2023/12/02 02:42:06;;;;;;;19.80;10.18;;;;;;;;;;5083577;28;20016;-63
2023/12/02 02:44:32;;;;;;;22.55;10.23;;;;;;;;;;5078984;28;20032;-62
2023/12/02 02:46:58;;;;;;;25.23;11.95;;;;;;;;;;5077905;28;20843;-62
2023/12/02 02:49:23;;;;;;;31.08;11.30;;;;;;;;;;5081381;28;20020;-62
2023/12/02 02:51:48;;;;;;;23.90;10.63;;;;;;;;;;5077653;28;20390;-61
2023/12/02 02:54:13;;;;;;;23.15;10.48;;;;;;;;;;5084004;28;20020;-62
2023/12/02 02:56:38;;;;;;;32.05;12.18;;;;;;;;;;5072624;28;20029;-63
2023/12/02 02:59:04;;;;;;;21.55;10.57;;;;;;;;;;5089028;28;20019;-64
2023/12/02 03:01:29;;;;;;;24.77;11.07;;;;;;;;;;5086683;28;20023;-64
2023/12/02 03:03:54;;;;;;;22.33;9.30;;;;;;;;;;5074307;28;20009;-64
2023/12/02 03:06:19;;;;;;;22.73;9.02;;;;;;;;;;5076673;28;20036;-65
2023/12/02 03:08:45;;;;;;;24.42;9.68;;;;;;;;;;5084960;28;20615;-64
2023/12/02 03:11:10;;;;;;;19.45;9.85;;;;;;;;;;5088285;28;20061;-63
2023/12/02 03:13:35;;;;;;;21.65;9.82;;;;;;;;;;5082069;28;20483;-64
2023/12/02 03:16:00;;;;;;;25.40;11.30;;;;;;;;;;5076057;28;20061;-65
2023/12/02 03:18:26;;;;;;;25.17;11.80;;;;;;;;;;5082234;28;20023;-63
2023/12/02 03:20:51;;;;;;;26.88;11.77;;;;;;;;;;5069647;28;20027;-63
2023/12/02 03:23:16;;;;;;;25.17;10.15;;;;;;;;;;5085525;28;20147;-65
2023/12/02 03:25:41;;;;;;;21.15;10.52;;;;;;;;;;5085438;28;20072;-62
2023/12/02 03:28:06;;;;;;;18.33;9.48;;;;;;;;;;5077651;28;20022;-62
2023/12/02 03:30:32;;;;;;;25.42;10.18;;;;;;;;;;5086258;28;20018;-61
2023/12/02 03:32:57;;;;;;;20.70;9.73;;;;;;;;;;5085474;28;20026;-64
2023/12/02 03:35:23;;;;;;;24.45;9.60;;;;;;;;;;5088680;28;20016;-64
2023/12/02 03:37:48;;;;;;;22.85;9.18;;;;;;;;;;5082981;28;20021;-61
2023/12/02 03:40:13;;;;;;;21.35;10.13;;;;;;;;;;5088279;28;20039;-64
2023/12/02 03:42:39;;;;;;;21.52;9.48;;;;;;;;;;5065966;28;20020;-62
2023/12/02 03:45:06;;;;;;;24.20;9.90;;;;;;;;;;5077088;28;20013;-61
2023/12/02 03:47:32;;;;;;;31.23;10.85;;;;;;;;;;5084861;28;20098;-64
2023/12/02 03:49:57;;;;;;;20.70;8.82;;;;;;;;;;5086276;28;20115;-64
2023/12/02 03:52:22;;;;;;;19.85;9.27;;;;;;;;;;5088259;28;20111;-61
2023/12/02 03:54:47;;;;;;;31.23;9.52;;;;;;;;;;5087280;28;20050;-63
2023/12/02 03:57:13;;;;;;;20.17;9.15;;;;;;;;;;5084181;28;20051;-63
2023/12/02 03:59:38;;;;;;;21.63;9.25;;;;;;;;;;5087825;28;20091;-61
2023/12/02 04:02:04;;;;;;;25.30;10.35;;;;;;;;;;5086316;28;20153;-63
2023/12/02 04:04:29;;;;;;;17.95;8.95;;;;;;;;;;5087335;28;20044;-64
2023/12/02 04:06:54;;;;;;;24.50;9.52;;;;;;;;;;5084687;28;20021;-62
2023/12/02 04:09:19;;;;;;;24.42;8.98;;;;;;;;;;5068597;28;20558;-64
2023/12/02 04:11:46;;;;;;;24.95;9.45;;;;;;;;;;5087620;28;20051;-63
2023/12/02 04:14:11;;;;;;;19.98;8.73;;;;;;;;;;5081555;28;20028;-62
2023/12/02 04:16:39;;;;;;;17.52;8.88;;;;;;;;;;5078398;28;20078;-63
2023/12/02 04:19:04;;;;;;;20.88;9.57;;;;;;;;;;5078962;28;20017;-64
2023/12/02 04:21:31;;;;;;;24.63;9.68;;;;;;;;;;5079033;28;20008;-62
2023/12/02 04:23:56;;;;;;;17.75;8.50;;;;;;;;;;5083227;28;20042;-65
2023/12/02 04:26:22;;;;;;;21.98;8.63;;;;;;;;;;5083224;28;20483;-63
2023/12/02 04:28:47;;;;;;;22.98;9.68;;;;;;;;;;5086480;28;20451;-63
2023/12/02 04:31:12;;;;;;;20.63;8.95;;;;;;;;;;5080008;28;20024;-63
2023/12/02 04:33:37;;;;;;;14.55;7.80;;;;;;;;;;5082036;28;20039;-63
2023/12/02 04:36:04;;;;;;;22.80;10.00;;;;;;;;;;5078287;28;20396;-62
2023/12/02 04:38:29;;;;;;;20.33;9.75;;;;;;;;;;5061333;28;20020;-63
2023/12/02 04:40:54;;;;;;;23.23;8.95;;;;;;;;;;5090118;28;20371;-63
2023/12/02 04:43:20;;;;;;;25.55;9.68;;;;;;;;;;5079424;28;20546;-65
2023/12/02 04:45:45;;;;;;;20.15;8.38;;;;;;;;;;5064309;28;20020;-62
2023/12/02 04:48:11;;;;;;;22.35;8.45;;;;;;;;;;5080008;28;20016;-63
2023/12/02 04:50:37;;;;;;;22.48;10.00;;;;;;;;;;5080097;28;20024;-63
2023/12/02 04:53:04;;;;;;;23.50;9.50;;;;;;;;;;5082571;28;20046;-64
2023/12/02 04:55:30;;;;;;;21.63;9.07;;;;;;;;;;5086617;28;20525;-64
2023/12/02 04:57:55;;;;;;;26.98;9.90;;;;;;;;;;5080285;28;20012;-64
2023/12/02 05:00:21;;;;;;;19.88;8.88;;;;;;;;;;5081831;28;20020;-61
2023/12/02 05:02:46;;;;;;;26.00;9.95;;;;;;;;;;5080410;28;20040;-62
2023/12/02 05:05:12;;;;;;;24.00;10.90;;;;;;;;;;5085947;28;20080;-64
2023/12/02 05:07:37;;;;;;;27.85;10.55;;;;;;;;;;5079326;28;20027;-61
2023/12/02 05:10:04;;;;;;;18.90;8.82;;;;;;;;;;5083358;28;20537;-63
2023/12/02 05:12:30;;;;;;;20.63;9.93;;;;;;;;;;5091488;28;20019;-64
2023/12/02 05:14:55;;;;;;;18.13;9.45;;;;;;;;;;5078587;28;20012;-64
2023/12/02 05:17:20;;;;;;;18.55;9.60;;;;;;;;;;5083459;28;20023;-64
2023/12/02 05:19:46;;;;;;;20.13;10.05;;;;;;;;;;5089069;28;20023;-64
2023/12/02 05:22:12;;;;;;;26.13;9.95;;;;;;;;;;5078865;28;20026;-64
2023/12/02 05:24:38;;;;;;;19.48;9.13;;;;;;;;;;5086461;28;20016;-63
2023/12/02 05:27:03;;;;;;;22.00;9.05;;;;;;;;;;5091020;28;20070;-64
2023/12/02 05:29:28;;;;;;;22.40;9.05;;;;;;;;;;5082363;28;20383;-62
2023/12/02 05:31:53;;;;;;;27.13;10.98;;;;;;;;;;5083474;28;20094;-64
2023/12/02 05:34:18;;;;;;;22.65;8.90;;;;;;;;;;5089664;28;20055;-63
2023/12/02 05:36:45;;;;;;;23.60;9.32;;;;;;;;;;5078227;28;20016;-62
2023/12/02 05:39:11;;;;;;;21.92;8.07;;;;;;;;;;5085753;28;20031;-64
2023/12/02 05:41:39;;;;;;;28.20;9.95;;;;;;;;;;5088058;28;20026;-63
2023/12/02 05:44:04;;;;;;;18.75;9.40;;;;;;;;;;5078996;28;20020;-64
2023/12/02 05:46:29;;;;;;;23.00;10.13;;;;;;;;;;5081708;28;20073;-62
2023/12/02 05:48:54;;;;;;;24.42;9.15;;;;;;;;;;5075964;28;20079;-61
2023/12/02 05:51:19;;;;;;;29.00;11.93;;;;;;;;;;5082461;28;20016;-62
2023/12/02 05:53:45;;;;;;;21.85;8.52;;;;;;;;;;5084974;28;20036;-63
2023/12/02 05:56:10;;;;;;;24.45;9.75;;;;;;;;;;5083700;28;20043;-63
2023/12/02 05:58:35;;;;;;;23.85;9.88;;;;;;;;;;5080330;28;20098;-61
2023/12/02 06:01:01;;;;;;;20.70;9.50;;;;;;;;;;5086811;28;20023;-64
2023/12/02 06:03:26;;;;;;;23.35;9.65;;;;;;;;;;5081224;28;20048;-64
2023/12/02 06:05:52;;;;;;;18.85;8.30;;;;;;;;;;5077526;28;20099;-65
2023/12/02 06:08:17;;;;;;;22.13;8.95;;;;;;;;;;5085921;28;20170;-65
2023/12/02 06:10:42;;;;;;;22.77;9.73;;;;;;;;;;5084808;28;20464;-61
2023/12/02 06:13:08;;;;;;;26.02;9.93;;;;;;;;;;5085689;28;20017;-62
2023/12/02 06:15:33;;;;;;;19.48;8.15;;;;;;;;;;5081746;28;20023;-65
2023/12/02 06:17:58;;;;;;;18.58;8.30;;;;;;;;;;5085994;28;20024;-62
2023/12/02 06:20:26;;;;;;;20.23;8.77;;;;;;;;;;5081810;28;20019;-64
2023/12/02 06:22:52;;;;;;;21.80;9.20;;;;;;;;;;5063261;28;20089;-62
2023/12/02 06:25:17;;;;;;;26.50;8.45;;;;;;;;;;5081814;28;20028;-62
2023/12/02 06:27:42;;;;;;;24.05;9.52;;;;;;;;;;5087270;28;20064;-63
2023/12/02 06:30:09;;;;;;;22.80;8.88;;;;;;;;;;5082144;28;20121;-63
2023/12/02 06:32:34;;;;;;;19.83;8.48;;;;;;;;;;5080295;28;20055;-65
2023/12/02 06:35:00;;;;;;;20.92;8.23;;;;;;;;;;5085676;28;20118;-64
2023/12/02 06:37:25;;;;;;;17.35;8.77;;;;;;;;;;5081449;28;20057;-63
2023/12/02 06:39:50;;;;;;;27.98;10.35;;;;;;;;;;5086917;28;20054;-65
2023/12/02 06:42:15;;;;;;;17.08;8.25;;;;;;;;;;5079459;28;20044;-65
2023/12/02 06:44:41;;;;;;;24.02;10.10;;;;;;;;;;5083612;28;20024;-63
2023/12/02 06:47:07;;;;;;;14.82;7.32;;;;;;;;;;5076841;28;20027;-64
2023/12/02 06:49:32;;;;;;;22.45;8.05;;;;;;;;;;5080556;28;20016;-66
2023/12/02 06:51:57;;;;;;;20.50;10.38;;;;;;;;;;5077685;28;20016;-66
2023/12/02 06:54:22;;;;;;;22.75;10.85;;;;;;;;;;5080717;28;20706;-65
2023/12/02 06:56:48;;;;;;;24.80;9.82;;;;;;;;;;5082336;28;20017;-65
2023/12/02 06:59:13;;;;;;;19.63;8.75;;;;;;;;;;5082893;28;20050;-66
2023/12/02 07:01:40;;;;;;;26.75;10.63;;;;;;;;;;5087405;28;20089;-65
2023/12/02 07:04:05;;;;;;;18.15;8.07;;;;;;;;;;5081996;28;20051;-68
2023/12/02 07:06:31;;;;;;;22.88;7.95;;;;;;;;;;5077291;28;20039;-66
2023/12/02 07:09:04;;;;;;;21.05;8.35;;;;;;;;;;5063817;28;20378;-66
2023/12/02 07:11:29;;;;;;;15.65;7.70;;;;;;;;;;5045308;28;20029;-65
2023/12/02 07:13:55;;;;;;;17.15;8.88;;;;;;;;;;5044211;28;20057;-64
2023/12/02 07:16:20;;;;;;;17.30;7.63;;;;;;;;;;5037761;28;20230;-66
2023/12/02 07:18:46;;;;;;;18.33;7.80;;;;;;;;;;5042384;28;20540;-64
2023/12/02 07:21:11;;;;;;;19.13;8.60;;;;;;;;;;5039603;28;20143;-64
2023/12/02 07:23:36;;;;;;;15.60;7.43;;;;;;;;;;5039156;28;20022;-66
2023/12/02 07:26:02;;;;;;;14.27;7.25;;;;;;;;;;5041885;28;20079;-64
2023/12/02 07:28:27;;;;;;;19.08;8.40;;;;;;;;;;5041469;28;20409;-63
2023/12/02 07:30:52;;;;;;;15.13;6.15;;;;;;;;;;5042059;28;20036;-65
2023/12/02 07:33:21;;;;;;;16.15;7.43;;;;;;;;;;5039599;28;20026;-66
2023/12/02 07:35:46;;;;;;;15.90;7.72;;;;;;;;;;5040872;28;20389;-65
2023/12/02 07:38:11;;;;;;;16.10;8.38;;;;;;;;;;5046271;28;20029;-65
2023/12/02 07:40:36;;;;;;;16.95;8.23;;;;;;;;;;5043244;28;20057;-65
2023/12/02 07:43:02;;;;;;;17.52;7.93;;;;;;;;;;5039546;28;20572;-63
2023/12/02 07:45:27;;;;;;;17.95;8.90;;;;;;;;;;5036410;28;20037;-62
2023/12/02 07:47:53;;;;;;;18.13;8.82;;;;;;;;;;5039775;28;20017;-63
2023/12/02 07:50:18;;;;;;;17.40;8.63;;;;;;;;;;5041454;28;20032;-64
2023/12/02 07:52:43;;;;;;;18.55;8.60;;;;;;;;;;5042322;28;20022;-65
2023/12/02 07:55:08;;;;;;;21.42;8.40;;;;;;;;;;5042238;28;20017;-65
2023/12/02 07:57:34;;;;;;;22.38;8.52;;;;;;;;;;5037576;28;20388;-65
2023/12/02 07:59:59;;;;;;;17.50;8.82;;;;;;;;;;5040502;28;20510;-64
2023/12/02 08:02:24;;;;;;;16.40;8.82;;;;;;;;;;5042351;28;20041;-64
2023/12/02 08:04:49;;;;;;;22.95;10.00;;;;;;;;;;5039633;28;20017;-65
2023/12/02 08:07:15;;;;;;;23.73;9.75;;;;;;;;;;5039174;28;20033;-65
2023/12/02 08:09:40;;;;;;;20.48;9.32;;;;;;;;;;5038578;28;20100;-66
2023/12/02 08:12:05;;;;;;;18.13;7.78;;;;;;;;;;5039905;28;20032;-66
2023/12/02 08:14:30;;;;;;;17.58;7.93;;;;;;;;;;5038285;28;20013;-64
2023/12/02 08:16:55;;;;;;;21.30;8.15;;;;;;;;;;5040826;28;20021;-65
2023/12/02 08:19:21;;;;;;;23.48;10.23;;;;;;;;;;5029635;28;20021;-65
2023/12/02 08:21:46;;;;;;;23.30;8.88;;;;;;;;;;5026691;28;20025;-64
2023/12/02 08:24:11;;;;;;;21.58;10.23;;;;;;;;;;5021082;28;20022;-65
2023/12/02 08:26:36;;;;;;;21.70;9.13;;;;;;;;;;5026084;28;20874;-66
2023/12/02 08:29:02;;;;;;;20.50;7.95;;;;;;;;;;5029090;28;20029;-64
2023/12/02 08:31:27;;;;;;;17.80;7.63;;;;;;;;;;5022075;28;20064;-66
2023/12/02 08:33:52;;;;;;;24.15;9.85;;;;;;;;;;5025653;28;20100;-65
2023/12/02 08:36:17;;;;;;;23.02;10.38;;;;;;;;;;5028121;28;20025;-63
2023/12/02 08:38:43;;;;;;;24.40;10.05;;;;;;;;;;5024791;28;20028;-65
2023/12/02 08:41:08;;;;;;;26.23;11.15;;;;;;;;;;5017400;28;20060;-63
2023/12/02 08:43:33;;;;;;;19.52;8.23;;;;;;;;;;5032434;28;20017;-64
2023/12/02 08:45:58;;;;;;;19.13;8.27;;;;;;;;;;5020334;28;20034;-67
2023/12/02 08:48:24;;;;;;;22.45;9.38;;;;;;;;;;5025879;28;20025;-64
2023/12/02 08:50:49;;;;;;;26.70;11.27;;;;;;;;;;5015894;28;20022;-67
2023/12/02 08:53:15;;;;;;;24.63;10.85;;;;;;;;;;5021467;28;20033;-64
2023/12/02 08:55:40;;;;;;;24.10;9.15;;;;;;;;;;5016971;28;20454;-66
2023/12/02 08:58:05;;;;;;;20.02;8.30;;;;;;;;;;5015642;28;20132;-65
2023/12/02 09:00:31;;;;;;;19.80;8.82;;;;;;;;;;5021519;28;20037;-67
2023/12/02 09:02:56;;;;;;;24.48;10.23;;;;;;;;;;5028435;28;20017;-67
2023/12/02 09:05:21;;;;;;;33.25;11.70;;;;;;;;;;5023827;28;20104;-67
2023/12/02 09:07:47;;;;;;;28.50;11.60;;;;;;;;;;5031462;28;20633;-69
2023/12/02 09:10:12;;;;;;;33.92;12.88;;;;;;;;;;5024614;28;20027;-68
2023/12/02 09:12:37;;;;;;;29.75;11.13;;;;;;;;;;5029732;28;20025;-64
2023/12/02 09:15:07;;;;;;;30.80;12.77;;;;;;;;;;5020812;28;20025;-66
2023/12/02 09:17:45;;;;;;;32.13;13.93;;;;;;;;;;5024962;28;20036;-68
2023/12/02 09:20:32;;;;;;;29.77;12.07;;;;;;;;;;5022477;28;20022;-70
2023/12/02 09:23:01;;;;;;;34.75;12.50;;;;;;;;;;5025001;28;20101;-69
2023/12/02 09:25:28;;;;;;;30.20;11.73;;;;;;;;;;5027930;28;20045;-67
2023/12/02 09:28:05;;;;;;;22.10;10.02;;;;;;;;;;5031703;28;20053;-71
2023/12/02 09:30:34;;;;;;;27.83;10.57;;;;;;;;;;5027558;28;20083;-69
2023/12/02 09:32:59;;;;;;;22.38;10.70;;;;;;;;;;5023066;28;20598;-68
2023/12/02 09:35:24;;;;;;;29.65;12.75;;;;;;;;;;5031251;28;20033;-67
2023/12/02 09:37:57;;;;;;;27.15;10.77;;;;;;;;;;5027798;28;20013;-66
2023/12/02 09:40:25;;;;;;;22.38;9.95;;;;;;;;;;5027865;28;20455;-64
2023/12/02 09:43:07;;;;;;;30.17;11.23;;;;;;;;;;5028011;28;20044;-67
2023/12/02 09:45:37;;;;;;;26.67;10.15;;;;;;;;;;5025226;28;20172;-66
2023/12/02 09:48:05;;;;;;;28.65;9.95;;;;;;;;;;5027857;28;20672;-67
2023/12/02 09:50:43;;;;;;;35.72;13.43;;;;;;;;;;5015641;28;20018;-66
2023/12/02 09:53:15;;;;;;;35.60;13.00;;;;;;;;;;5022124;28;20047;-67
2023/12/02 09:55:48;;;;;;;27.50;10.13;;;;;;;;;;5014985;28;20013;-63
2023/12/02 09:58:19;;;;;;;24.02;9.95;;;;;;;;;;5017529;28;20036;-66
2023/12/02 10:00:54;;;;;;;26.83;11.27;;;;;;;;;;5017285;28;20043;-64
2023/12/02 10:03:31;;;;;;;28.88;11.57;;;;;;;;;;5025786;28;20030;-72
2023/12/02 10:06:06;;;;;;;26.52;10.27;;;;;;;;;;5033474;28;20021;-67
2023/12/02 10:08:54;;;;;;;25.42;8.52;;;;;;;;;;5025922;28;20029;-70
2023/12/02 10:11:20;;;;;;;22.48;8.25;;;;;;;;;;5017380;28;20014;-68
2023/12/02 10:13:53;;;;;;;24.60;10.43;;;;;;;;;;5029498;28;20028;-69
2023/12/02 10:16:20;;;;;;;35.33;11.93;;;;;;;;;;5023191;28;20018;-68
2023/12/02 10:18:51;;;;;;;19.88;8.57;;;;;;;;;;5020296;28;20519;-67
2023/12/02 10:21:18;;;;;;;23.08;9.10;;;;;;;;;;5023553;28;20025;-67
2023/12/02 10:23:43;;;;;;;24.42;8.43;;;;;;;;;;5033608;28;20026;-67
2023/12/02 10:26:29;;;;;;;21.45;9.05;;;;;;;;;;5024543;28;20592;-67
2023/12/02 10:28:54;;;;;;;29.98;10.05;;;;;;;;;;5025231;28;20053;-69
2023/12/02 10:31:27;;;;;;;19.98;7.72;;;;;;;;;;5023613;28;20536;-67
2023/12/02 10:34:02;;;;;;;17.95;7.70;;;;;;;;;;5023315;28;20433;-69
2023/12/02 10:36:28;;;;;;;19.63;7.40;;;;;;;;;;5023505;28;20025;-68
2023/12/02 10:39:02;;;;;;;16.75;7.32;;;;;;;;;;5024369;28;20037;-68
2023/12/02 10:41:35;;;;;;;22.70;8.80;;;;;;;;;;5024532;28;20029;-68
2023/12/02 10:44:03;;;;;;;34.53;10.05;;;;;;;;;;5024127;28;20029;-66
2023/12/02 10:46:28;;;;;;;30.77;8.52;;;;;;;;;;5022649;28;20022;-68
2023/12/02 10:48:54;;;;;;;25.58;9.65;;;;;;;;;;5021087;28;20045;-66
2023/12/02 10:51:21;;;;;;;20.40;7.93;;;;;;;;;;5023321;28;20080;-67
2023/12/02 10:53:48;;;;;;;20.83;8.20;;;;;;;;;;5018570;28;20048;-68
2023/12/02 10:56:21;;;;;;;27.60;9.57;;;;;;;;;;5019067;28;20034;-67
2023/12/02 10:58:48;;;;;;;24.02;7.63;;;;;;;;;;5020573;28;20109;-67
2023/12/02 11:01:16;;;;;;;29.33;8.82;;;;;;;;;;5015488;28;20591;-68
2023/12/02 11:03:50;;;;;;;17.03;7.17;;;;;;;;;;5017031;28;20440;-69
2023/12/02 11:06:22;;;;;;;25.40;8.93;;;;;;;;;;5013844;28;20262;-69
2023/12/02 11:08:50;;;;;;;26.17;9.52;;;;;;;;;;5000582;28;20033;-66
2023/12/02 11:11:39;;;;;;;31.13;11.10;;;;;;;;;;5016103;28;20030;-67
2023/12/02 11:14:06;;;;;;;22.10;8.73;;;;;;;;;;5024267;28;20370;-69
2023/12/02 11:16:41;;;;;;;21.35;8.88;;;;;;;;;;5019570;28;20014;-68
2023/12/02 11:19:10;;;;;;;28.58;9.30;;;;;;;;;;5022878;28;20038;-69
2023/12/02 11:21:42;;;;;;;24.75;8.88;;;;;;;;;;5017567;28;20078;-69
2023/12/02 11:24:12;;;;;;;27.15;9.35;;;;;;;;;;5020075;28;20021;-65
2023/12/02 11:26:37;;;;;;;23.70;9.73;;;;;;;;;;5018737;28;20038;-68
2023/12/02 11:29:21;;;;;;;21.42;8.52;;;;;;;;;;5019684;28;20029;-68
2023/12/02 11:32:08;;;;;;;21.00;8.98;;;;;;;;;;5020335;28;20148;-68
2023/12/02 11:34:37;;;;;;;24.67;7.93;;;;;;;;;;5020539;28;20029;-67
2023/12/02 11:37:32;;;;;;;29.02;9.40;;;;;;;;;;5019590;28;20148;-67
2023/12/02 11:39:57;;;;;;;23.52;8.52;;;;;;;;;;5018164;28;20112;-68
2023/12/02 11:42:24;;;;;;;25.90;7.25;;;;;;;;;;5020428;28;20453;-69
2023/12/02 11:44:55;;;;;;;28.75;9.25;;;;;;;;;;5021054;28;20022;-67
2023/12/02 11:47:26;;;;;;;29.90;7.57;;;;;;;;;;5022255;28;20028;-68
2023/12/02 11:49:57;;;;;;;31.73;11.23;;;;;;;;;;5018854;28;20029;-67
2023/12/02 11:52:30;;;;;;;27.65;10.35;;;;;;;;;;5018573;28;20025;-68
2023/12/02 11:54:58;;;;;;;22.95;8.93;;;;;;;;;;5022693;28;20029;-68
2023/12/02 11:57:38;;;;;;;27.05;9.25;;;;;;;;;;5025541;28;20501;-67
2023/12/02 12:00:09;;;;;;;27.80;9.85;;;;;;;;;;5024983;28;21132;-68
2023/12/02 12:02:40;;;;;;;23.13;8.43;;;;;;;;;;5022440;28;20466;-67
2023/12/02 12:05:24;;;;;;;29.27;10.38;;;;;;;;;;5023204;28;20033;-68
2023/12/02 12:07:58;;;;;;;32.70;10.43;;;;;;;;;;5023727;28;20033;-67
2023/12/02 12:10:32;;;;;;;31.30;8.23;;;;;;;;;;5022956;28;20028;-68
2023/12/02 12:12:59;;;;;;;24.35;8.23;;;;;;;;;;5021542;28;20039;-71
2023/12/02 12:15:24;;;;;;;26.73;10.38;;;;;;;;;;5024603;28;20017;-68
2023/12/02 12:17:49;;;;;;;26.85;10.13;;;;;;;;;;5023469;28;20094;-69
2023/12/02 12:20:16;;;;;;;25.92;8.13;;;;;;;;;;5024432;28;20029;-67
2023/12/02 12:22:41;;;;;;;20.50;8.80;;;;;;;;;;5037860;22;20116;-75
2023/12/02 12:25:07;;;;;;;26.27;8.88;;;;;;;;;;5010638;28;20037;-74
2023/12/02 12:27:32;;;;;;;16.27;8.65;;;;;;;;;;5009844;28;20540;-75
2023/12/02 12:29:57;;;;;;;29.42;9.85;;;;;;;;;;5013359;28;20026;-74
2023/12/02 12:32:23;;;;;;;19.00;8.55;;;;;;;;;;5010327;28;20033;-75
2023/12/02 12:34:51;;;;;;;22.00;8.35;;;;;;;;;;4997156;28;20021;-76
2023/12/02 12:37:16;;;;;;;22.85;9.88;;;;;;;;;;4993428;28;20140;-76
2023/12/02 12:39:42;;;;;;;22.73;9.10;;;;;;;;;;4991365;28;20883;-75
2023/12/02 12:42:08;;;;;;;21.77;9.40;;;;;;;;;;4997753;28;20037;-75
2023/12/02 12:44:33;;;;;;;28.20;9.13;;;;;;;;;;4997400;28;20179;-76
2023/12/02 12:46:59;;;;;;;22.30;9.07;;;;;;;;;;4998798;28;20488;-75
2023/12/02 12:49:24;;;;;;;24.08;9.63;;;;;;;;;;4992852;28;20125;-75
2023/12/02 12:51:50;;;;;;;27.35;9.05;;;;;;;;;;4978427;28;20034;-76
2023/12/02 12:54:18;;;;;;;23.58;10.05;;;;;;;;;;5001410;28;20036;-77
2023/12/02 12:56:50;;;;;;;23.38;9.75;;;;;;;;;;5008778;28;20092;-76
2023/12/02 12:59:18;;;;;;;21.02;8.40;;;;;;;;;;4993440;28;20488;-75
2023/12/02 13:02:03;;;;;;;24.83;9.15;;;;;;;;;;4987232;28;20026;-75
2023/12/02 13:04:46;;;;;;;22.77;9.43;;;;;;;;;;4995618;28;20056;-74
2023/12/02 13:07:12;;;;;;;26.92;8.65;;;;;;;;;;4998487;28;20109;-75
2023/12/02 13:09:41;;;;;;;23.60;9.88;;;;;;;;;;4998371;28;20690;-76
2023/12/02 13:12:13;;;;;;;33.50;9.52;;;;;;;;;;4998777;28;20049;-77
2023/12/02 13:14:46;;;;;;;20.83;8.13;;;;;;;;;;4997042;28;20534;-75
2023/12/02 13:17:13;;;;;;;25.75;11.00;;;;;;;;;;4994543;28;20034;-74
2023/12/02 13:19:40;;;;;;;17.83;8.48;;;;;;;;;;4991250;28;20057;-73
2023/12/02 13:22:06;;;;;;;22.38;10.07;;;;;;;;;;4993168;28;20041;-74
2023/12/02 13:24:36;;;;;;;20.73;8.65;;;;;;;;;;4988421;28;20124;-73
2023/12/02 13:27:01;;;;;;;21.15;8.40;;;;;;;;;;4993951;28;20041;-72
2023/12/02 13:29:27;;;;;;;23.60;8.32;;;;;;;;;;4994741;28;20026;-77
2023/12/02 13:31:53;;;;;;;23.25;7.63;;;;;;;;;;4985970;28;20031;-77
2023/12/02 13:34:27;;;;;;;21.90;8.45;;;;;;;;;;4994660;28;20029;-81
2023/12/02 13:36:53;;;;;;;16.60;7.53;;;;;;;;;;4995144;28;20170;-75
2023/12/02 13:39:24;;;;;;;27.05;9.30;;;;;;;;;;4997968;28;20060;-76
2023/12/02 13:41:50;;;;;;;20.77;8.40;;;;;;;;;;4990544;28;20030;-73
2023/12/02 13:44:17;;;;;;;16.25;7.82;;;;;;;;;;4995330;28;20041;-73
2023/12/02 13:47:01;;;;;;;17.13;7.82;;;;;;;;;;4993272;28;20823;-71
2023/12/02 13:49:45;;;;;;;20.33;9.20;;;;;;;;;;4990334;28;20034;-72
2023/12/02 13:52:13;;;;;;;20.55;8.55;;;;;;;;;;4994552;28;20045;-75
2023/12/02 13:54:47;;;;;;;22.30;9.93;;;;;;;;;;4988285;28;21163;-71
2023/12/02 13:57:19;;;;;;;19.95;8.48;;;;;;;;;;4994270;28;20064;-75
2023/12/02 13:59:48;;;;;;;18.25;8.18;;;;;;;;;;4989125;28;21679;-73
2023/12/02 14:02:25;;;;;;;21.50;9.40;;;;;;;;;;4993961;28;20045;-71
2023/12/02 14:05:06;;;;;;;17.33;8.65;;;;;;;;;;4996717;28;20022;-69
2023/12/02 14:07:52;;;;;;;16.38;7.78;;;;;;;;;;4994193;28;20029;-66
2023/12/02 14:10:22;;;;;;;16.25;8.05;;;;;;;;;;4990632;28;20034;-67
2023/12/02 14:12:56;;;;;;;15.52;8.07;;;;;;;;;;4995225;28;20123;-69
2023/12/02 14:15:24;;;;;;;15.82;8.20;;;;;;;;;;4995080;28;20028;-67
2023/12/02 14:18:04;;;;;;;14.02;6.47;;;;;;;;;;4989266;28;20231;-69
2023/12/02 14:20:35;;;;;;;23.67;8.77;;;;;;;;;;4991801;28;20204;-69
2023/12/02 14:23:12;;;;;;;17.58;8.45;;;;;;;;;;4991524;28;20680;-68
2023/12/02 14:25:37;;;;;;;17.02;7.53;;;;;;;;;;4992757;28;20049;-66
2023/12/02 14:28:09;;;;;;;14.00;6.68;;;;;;;;;;4992095;28;20027;-65